AirNav   Bose ProFlight Series 2 Headset
 
 1275 users online  

6NE0 Van Boening Airport
Wallace, Nebraska, USA

GOING TO WALLACE?


FAA INFORMATION EFFECTIVE 02 JANUARY 2020

Location

FAA Identifier: 6NE0
Lat/Long: 40-47-13.0120N 101-09-56.5620W
40-47.216867N 101-09.942700W
40.7869478,-101.1657117
(estimated)
Elevation: 3102 ft. / 945.5 m (surveyed)
Variation: 09E (1985)
From city: 3 miles S of WALLACE, NE
Time zone: UTC -6 (UTC -5 during Daylight Saving Time)
Zip code: 69169

Airport Operations

Airport use: Private use. Permission required prior to landing
Activation date: 09/1973
Control tower: no
ARTCC: DENVER CENTER
FSS: COLUMBUS FLIGHT SERVICE STATION
Attendance: IREG
Wind indicator: yes
Segmented circle: no

Nearby radio navigation aids

VOR radial/distance  VOR name  Freq  Var
HCTr320/22.8HAYES CENTER VORTAC117.7011E
LBFr219/24.6NORTH PLATTE VOR/DME117.4011E
SAEr119/34.1SEARLE VOR/DME110.2007E

 
NDB name  Hdg/Dist  Freq  Var  ID
GRANT092/26.135909EGGF --. --. ..-.

Airport Services

Airframe service: NONE
Powerplant service: NONE

Runway Information

Runway 12/30

Dimensions: 3020 x 80 ft. / 920 x 24 m
Surface: turf
RUNWAY 12  RUNWAY 30
Traffic pattern: leftleft
Obstructions: plinesnone

Airport Ownership and Management from official FAA records

Ownership: Privately-owned
Owner: STUART VAN BOENING
WALLACE, NE 69169
Phone 308-387-4615
OTHER CONTACT LEA VAN BOENING
Manager: STUART VAN BOENING
WALLACE, NE 69169

Airport Operational Statistics

Aircraft based on the field: 2
Single engine airplanes: 2
    

Additional Remarks

FOR CD CTC DENVER ARTCC AT 303-651-4257.

Instrument Procedures

There are no published instrument procedures at 6NE0.

Some nearby airports with instrument procedures:

KGGF - Grant Municipal Airport (26 nm W)
KIML - Imperial Municipal Airport (27 nm SW)
KLBF - North Platte Regional Airport Lee Bird Field (30 nm NE)
47V - Curtis Municipal Airport (33 nm E)
KOGA - Searle Field Airport (34 nm NW)
 
Loc | Ops | Rwys | IFR | FBO | Links
Com | Nav | Svcs | Stats | Notes

AirBoss

 
Area around 6NE0 (Van Boening Airport)
 
Road maps at: MapQuest Bing Google
 
Aerial photo
No photo
 
Sectional chart

 
Airport distance calculator
Flying to Van Boening Airport? Find the distance to fly.

From to 6NE0

Sunrise and sunset
Times for 18-Jan-2020
 Local
(UTC-6)
 Zulu
(UTC)
Morning civil twilight07:3713:37
Sunrise08:0614:06
Sunset17:4423:44
Evening civil twilight18:1400:14

Current date and time
Zulu (UTC)  18-Jan-2020 19:14:12
Local (UTC-6)  18-Jan-2020 13:14:12
 
METAR
KIML 
26nm SW 
181853Z AUTO 32014G19KT 10SM CLR 04/M15 A3032 RMK AO2 SLP294 T00391150
KLBF 
30nm NE 
181853Z AUTO 32015KT 10SM CLR 01/M08 A3032 RMK AO2 SLP292 T00111078 $
KOGA 
32nm NW 
181855Z AUTO 32015G24KT 10SM CLR 03/M13 A3031 RMK AO2 T00311127
KMCK 
44nm SE 
181853Z AUTO 30006KT 10SM CLR 02/M07 A3035 RMK AO2 SLP302 T00171067
TAF
KLBF 
30nm NE 
181732Z 1818/1918 31013KT P6SM SCT250 FM190000 VRB04KT P6SM SCT250
NOTAMs
Click for the latest NOTAMs
NOTAMs are issued by the DoD/FAA and will open in a separate window not controlled by AirNav.

 

 
 

Would you like to see your business listed on this page?

 If your business provides an interesting product or service to pilots, flight crews, aircraft, or users of the Van Boening Airport, you should consider listing it here.  To start the listing process, click on the button below
 
Add a business
 

Other Pages about Van Boening Airport

Update a link
 
Copyright © AirNav, LLC. All rights reserved. Privacy Policy  Contact